createdAt,value
2017-11-20T00:01:27.381Z,0.70
2017-11-20T00:03:55.634Z,0.73
2017-11-20T00:06:24.438Z,0.90
2017-11-20T00:08:52.666Z,0.80
2017-11-20T00:11:20.932Z,0.60
2017-11-20T00:13:49.164Z,0.70
2017-11-20T00:16:17.408Z,0.70
2017-11-20T00:18:45.661Z,0.60
2017-11-20T00:21:13.896Z,0.67
2017-11-20T00:23:42.132Z,0.77
2017-11-20T00:26:10.385Z,0.70
2017-11-20T00:28:38.928Z,0.63
2017-11-20T00:31:07.165Z,0.70
2017-11-20T00:33:35.429Z,0.90
2017-11-20T00:36:03.659Z,0.87
2017-11-20T00:38:31.887Z,0.70
2017-11-20T00:41:00.144Z,0.73
2017-11-20T00:43:28.389Z,0.80
2017-11-20T00:45:57.030Z,0.70
2017-11-20T00:48:25.281Z,0.70
2017-11-20T00:50:53.525Z,0.83
2017-11-20T00:53:22.091Z,0.70
2017-11-20T00:55:50.387Z,0.80
2017-11-20T00:58:18.616Z,0.70
2017-11-20T01:00:47.125Z,0.87
2017-11-20T01:03:15.368Z,0.83
2017-11-20T01:05:43.881Z,0.80
2017-11-20T01:08:12.113Z,0.70
2017-11-20T01:10:40.379Z,1.00
2017-11-20T01:13:08.604Z,0.70
2017-11-20T01:15:36.837Z,0.80
2017-11-20T01:18:05.096Z,0.70
2017-11-20T01:20:33.721Z,0.90
2017-11-20T01:23:01.957Z,0.80
2017-11-20T01:25:30.914Z,0.70
2017-11-20T01:27:59.142Z,0.70
2017-11-20T01:30:27.379Z,0.70
2017-11-20T01:32:55.637Z,0.80
2017-11-20T01:35:23.870Z,0.97
2017-11-20T01:37:52.098Z,0.77
2017-11-20T01:40:20.365Z,0.87
2017-11-20T01:42:48.593Z,0.80
2017-11-20T01:45:16.825Z,0.70
2017-11-20T01:47:45.094Z,0.73
2017-11-20T01:50:13.430Z,0.80
2017-11-20T01:52:41.661Z,0.83
2017-11-20T01:55:10.544Z,0.70
2017-11-20T01:57:38.777Z,0.80
2017-11-20T02:00:07.008Z,0.70
2017-11-20T02:02:47.700Z,1.20
2017-11-20T02:05:15.941Z,0.70
2017-11-20T02:07:44.171Z,0.77
2017-11-20T02:10:12.421Z,0.60
2017-11-20T02:12:40.645Z,0.90
2017-11-20T02:15:08.874Z,1.03
2017-11-20T02:17:37.146Z,0.70
2017-11-20T02:20:05.381Z,0.73
2017-11-20T02:22:33.613Z,0.70
2017-11-20T02:25:01.893Z,0.70
2017-11-20T02:27:30.125Z,0.70
2017-11-20T02:29:59.117Z,0.90
2017-11-20T02:32:27.352Z,0.80
2017-11-20T02:34:55.577Z,0.60
2017-11-20T02:37:24.211Z,0.70
2017-11-20T02:39:52.475Z,0.70
2017-11-20T02:42:20.954Z,0.80
2017-11-20T02:44:49.191Z,0.60
2017-11-20T02:47:17.820Z,0.70
2017-11-20T02:49:46.326Z,0.70
2017-11-20T02:52:14.554Z,0.90
2017-11-20T02:54:42.834Z,0.80
2017-11-20T02:57:11.065Z,0.73
2017-11-20T02:59:39.294Z,0.90
2017-11-20T03:02:07.553Z,0.60
2017-11-20T03:04:35.785Z,0.63
2017-11-20T03:07:04.021Z,0.60
2017-11-20T03:09:32.602Z,0.70
2017-11-20T03:12:00.828Z,0.70
2017-11-20T03:14:29.460Z,0.70
2017-11-20T03:16:57.974Z,0.70
2017-11-20T03:19:26.202Z,0.73
2017-11-20T03:21:54.437Z,0.60
2017-11-20T03:24:22.694Z,1.13
2017-11-20T03:26:50.926Z,0.67
2017-11-20T03:29:19.165Z,0.70
2017-11-20T03:31:47.410Z,0.70
2017-11-20T03:34:15.654Z,0.73
2017-11-20T03:36:43.881Z,0.80
2017-11-20T03:39:12.140Z,0.80
2017-11-20T03:41:40.357Z,0.73
2017-11-20T03:44:08.987Z,0.90
2017-11-20T03:46:37.489Z,0.83
2017-11-20T03:49:05.724Z,0.80
2017-11-20T03:51:33.957Z,0.80
2017-11-20T03:54:02.650Z,0.90
2017-11-20T03:56:30.891Z,0.90
2017-11-20T03:58:59.382Z,0.80
2017-11-20T04:01:27.657Z,0.77
2017-11-20T04:03:56.504Z,0.90
2017-11-20T04:06:24.719Z,0.80
2017-11-20T04:08:52.984Z,1.00
2017-11-20T04:11:21.477Z,0.80
2017-11-20T04:13:49.720Z,0.87
2017-11-20T04:16:17.966Z,1.00
2017-11-20T04:18:46.593Z,0.80
2017-11-20T04:21:14.821Z,0.90
2017-11-20T04:23:43.505Z,0.90
2017-11-20T04:26:12.353Z,0.90
2017-11-20T04:28:40.573Z,1.00
2017-11-20T04:31:09.217Z,0.70
2017-11-20T04:33:37.462Z,1.00
2017-11-20T04:36:05.691Z,0.90
2017-11-20T04:38:34.384Z,0.73
2017-11-20T04:41:03.013Z,1.00
2017-11-20T04:43:31.244Z,0.90
2017-11-20T04:45:59.905Z,0.73
2017-11-20T04:48:28.381Z,0.80
2017-11-20T04:50:56.609Z,1.00
2017-11-20T04:53:24.879Z,0.70
2017-11-20T04:55:54.307Z,0.90
2017-11-20T04:58:24.020Z,0.70
2017-11-20T05:00:52.556Z,1.03
2017-11-20T05:03:21.420Z,0.70
2017-11-20T05:05:49.655Z,0.90
2017-11-20T05:08:17.899Z,1.10
2017-11-20T05:10:46.527Z,0.90
2017-11-20T05:13:15.355Z,0.90
2017-11-20T05:15:43.580Z,0.80
2017-11-20T05:18:11.837Z,0.90
2017-11-20T05:20:40.089Z,0.80
2017-11-20T05:23:08.333Z,0.90
2017-11-20T05:25:36.564Z,0.80
2017-11-20T05:28:04.853Z,0.80
2017-11-20T05:30:33.107Z,1.00
2017-11-20T05:33:01.823Z,1.00
2017-11-20T05:35:30.116Z,0.80
2017-11-20T05:37:58.806Z,0.80
2017-11-20T05:40:27.047Z,0.90
2017-11-20T05:42:55.363Z,0.80
2017-11-20T05:45:23.581Z,0.90
2017-11-20T05:47:52.247Z,0.87
2017-11-20T05:50:20.460Z,0.87
2017-11-20T05:52:48.989Z,1.00
2017-11-20T05:55:17.263Z,0.80
2017-11-20T05:57:46.208Z,0.80
2017-11-20T06:00:14.448Z,0.93
2017-11-20T06:02:42.714Z,0.90
2017-11-20T06:05:11.470Z,0.70
2017-11-20T06:07:39.726Z,0.80
2017-11-20T06:10:08.064Z,0.90
2017-11-20T06:12:36.281Z,0.87
2017-11-20T06:15:04.518Z,0.80
2017-11-20T06:17:33.945Z,0.70
2017-11-20T06:20:05.754Z,0.80
2017-11-20T06:22:34.003Z,0.80
2017-11-20T06:25:02.273Z,0.80
2017-11-20T06:27:30.541Z,0.90
2017-11-20T06:29:58.797Z,0.60
2017-11-20T06:32:27.419Z,0.80
2017-11-20T06:34:55.670Z,0.90
2017-11-20T06:37:23.935Z,0.90
2017-11-20T06:39:52.576Z,0.90
2017-11-20T06:42:20.807Z,0.80
2017-11-20T06:44:49.825Z,0.80
2017-11-20T06:47:18.061Z,0.90
2017-11-20T06:49:46.700Z,0.90
2017-11-20T06:52:14.954Z,0.90
2017-11-20T06:54:43.172Z,1.00
2017-11-20T06:57:11.424Z,1.17
2017-11-20T06:59:40.113Z,1.17
2017-11-20T07:02:08.337Z,1.13
2017-11-20T07:04:36.609Z,1.00
2017-11-20T07:07:04.854Z,1.00
2017-11-20T07:09:33.090Z,1.00
2017-11-20T07:12:02.396Z,1.20
2017-11-20T07:14:30.635Z,1.10
2017-11-20T07:16:59.262Z,1.00
2017-11-20T07:19:28.039Z,1.03
2017-11-20T07:21:56.549Z,1.00
2017-11-20T07:24:25.213Z,0.90
2017-11-20T07:27:01.457Z,1.20
2017-11-20T07:29:41.670Z,1.10
2017-11-20T07:32:09.954Z,1.10
2017-11-20T07:34:50.484Z,1.20
2017-11-20T07:37:31.547Z,1.10
2017-11-20T07:40:11.615Z,1.10
2017-11-20T07:42:39.874Z,1.30
2017-11-20T07:45:09.041Z,1.30
2017-11-20T07:47:37.775Z,1.50
2017-11-20T07:50:06.393Z,1.30
2017-11-20T07:52:35.628Z,1.17
2017-11-20T07:55:04.707Z,1.37
2017-11-20T07:57:32.953Z,1.43
2017-11-20T08:00:01.522Z,1.00
2017-11-20T08:02:29.793Z,1.77
2017-11-20T08:04:58.043Z,1.33
2017-11-20T08:07:26.306Z,1.50
2017-11-20T08:09:54.569Z,1.70
2017-11-20T08:12:24.085Z,1.50
2017-11-20T08:14:51.061Z,1.60
2017-11-20T08:17:19.602Z,1.17
2017-11-20T08:19:48.060Z,1.50
2017-11-20T08:22:16.708Z,1.47
2017-11-20T08:24:44.962Z,1.70
2017-11-20T08:27:13.240Z,2.13
2017-11-20T08:29:41.482Z,1.43
2017-11-20T08:32:10.105Z,1.40
2017-11-20T08:34:38.609Z,1.63
2017-11-20T08:37:07.094Z,1.50
2017-11-20T08:39:35.357Z,1.60
2017-11-20T08:42:03.960Z,1.77
2017-11-20T08:44:32.189Z,1.50
2017-11-20T08:47:00.569Z,1.50
2017-11-20T08:49:28.796Z,1.50
2017-11-20T08:51:57.455Z,1.57
2017-11-20T08:54:25.705Z,1.80
2017-11-20T08:56:54.225Z,1.77
2017-11-20T08:59:22.814Z,1.87
2017-11-20T09:01:51.048Z,1.47
2017-11-20T09:04:19.276Z,1.40
2017-11-20T09:06:47.914Z,1.60
2017-11-20T09:09:16.147Z,1.63
2017-11-20T09:11:44.775Z,1.40
2017-11-20T09:14:13.034Z,1.37
2017-11-20T09:16:41.257Z,1.50
2017-11-20T09:19:09.854Z,1.30
2017-11-20T09:21:38.118Z,1.50
2017-11-20T09:24:06.349Z,1.70
2017-11-20T09:26:34.585Z,1.63
2017-11-20T09:29:03.242Z,1.87
2017-11-20T09:31:31.817Z,1.63
2017-11-20T09:34:00.061Z,1.50
2017-11-20T09:36:28.341Z,1.50
2017-11-20T09:38:56.606Z,1.40
2017-11-20T09:41:24.839Z,1.30
2017-11-20T09:43:53.204Z,1.50
2017-11-20T09:46:21.416Z,1.40
2017-11-20T09:48:50.054Z,1.53
2017-11-20T09:51:18.314Z,1.30
2017-11-20T09:53:46.557Z,1.53
2017-11-20T09:56:15.189Z,1.37
2017-11-20T09:58:43.446Z,1.30
2017-11-20T10:01:11.687Z,1.20
2017-11-20T10:03:40.646Z,1.63
2017-11-20T10:06:08.874Z,1.60
2017-11-20T10:08:37.131Z,1.60
2017-11-20T10:11:06.089Z,1.23
2017-11-20T10:13:34.336Z,1.30
2017-11-20T10:16:02.566Z,1.40
2017-11-20T10:18:31.213Z,1.50
2017-11-20T10:20:59.501Z,1.20
2017-11-20T10:23:27.738Z,1.37
2017-11-20T10:25:56.054Z,1.20
2017-11-20T10:28:24.275Z,1.40
2017-11-20T10:30:52.543Z,1.50
2017-11-20T10:33:21.178Z,1.20
2017-11-20T10:35:49.418Z,1.63
2017-11-20T10:38:17.662Z,1.50
2017-11-20T10:40:46.346Z,1.20
2017-11-20T10:43:14.978Z,1.50
2017-11-20T10:45:43.378Z,1.17
2017-11-20T10:48:11.615Z,1.30
2017-11-20T10:50:39.853Z,1.27
2017-11-20T10:53:08.105Z,1.53
2017-11-20T10:55:36.389Z,1.20
2017-11-20T10:58:04.619Z,1.30
2017-11-20T11:00:32.857Z,1.60
2017-11-20T11:03:01.494Z,1.30
2017-11-20T11:05:29.769Z,1.20
2017-11-20T11:07:58.002Z,1.40
2017-11-20T11:10:26.280Z,1.50
2017-11-20T11:12:54.510Z,1.30
2017-11-20T11:15:22.762Z,1.17
2017-11-20T11:17:51.279Z,1.17
2017-11-20T11:20:19.517Z,1.20
2017-11-20T11:22:47.750Z,1.37
2017-11-20T11:25:16.040Z,1.57
2017-11-20T11:27:44.670Z,1.40
2017-11-20T11:30:12.944Z,1.40
2017-11-20T11:32:41.337Z,1.20
2017-11-20T11:35:10.361Z,1.80
2017-11-20T11:37:39.331Z,1.30
2017-11-20T11:40:08.313Z,1.23
2017-11-20T11:42:36.537Z,1.10
2017-11-20T11:45:04.787Z,1.70
2017-11-20T11:47:33.062Z,1.37
2017-11-20T11:50:01.298Z,1.50
2017-11-20T11:52:29.541Z,1.30
2017-11-20T11:54:57.810Z,1.30
2017-11-20T11:57:26.435Z,1.10
2017-11-20T11:59:54.669Z,1.20
2017-11-20T12:02:23.817Z,1.43
2017-11-20T12:04:52.098Z,1.30
2017-11-20T12:07:20.341Z,1.40
2017-11-20T12:09:48.577Z,1.50
2017-11-20T12:12:16.926Z,1.30
2017-11-20T12:14:45.183Z,1.30
2017-11-20T12:17:13.481Z,1.50
2017-11-20T12:19:41.713Z,1.53
2017-11-20T12:22:10.010Z,1.30
2017-11-20T12:24:38.253Z,1.20
2017-11-20T12:27:06.495Z,1.40
2017-11-20T12:29:34.780Z,1.20
2017-11-20T12:32:03.033Z,1.53
2017-11-20T12:34:31.526Z,1.30
2017-11-20T12:36:59.782Z,1.30
2017-11-20T12:39:28.027Z,1.60
2017-11-20T12:41:56.343Z,1.80
2017-11-20T12:44:24.597Z,1.20
2017-11-20T12:46:52.833Z,1.33
2017-11-20T12:49:21.470Z,1.30
2017-11-20T12:51:50.069Z,1.40
2017-11-20T12:54:18.322Z,1.40
2017-11-20T12:56:46.557Z,1.30
2017-11-20T12:59:14.931Z,1.23
2017-11-20T13:01:43.573Z,1.23
2017-11-20T13:04:11.809Z,1.30
2017-11-20T13:06:40.080Z,1.30
2017-11-20T13:09:08.319Z,1.20
2017-11-20T13:11:36.568Z,1.20
2017-11-20T13:14:04.905Z,1.50
2017-11-20T13:16:33.147Z,1.43
2017-11-20T13:19:01.386Z,1.20
2017-11-20T13:21:29.638Z,1.20
2017-11-20T13:23:57.913Z,1.23
2017-11-20T13:26:26.152Z,1.50
2017-11-20T13:28:54.405Z,1.40
2017-11-20T13:31:22.645Z,1.40
2017-11-20T13:33:50.887Z,1.30
2017-11-20T13:36:19.513Z,1.07
2017-11-20T13:38:47.786Z,1.10
2017-11-20T13:41:16.042Z,1.40
2017-11-20T13:43:44.672Z,1.17
2017-11-20T13:46:13.434Z,1.70
2017-11-20T13:48:41.674Z,1.37
2017-11-20T13:51:10.337Z,1.50
2017-11-20T13:53:38.582Z,1.57
2017-11-20T13:56:06.822Z,1.50
2017-11-20T13:58:35.153Z,1.10
2017-11-20T14:01:03.413Z,1.63
2017-11-20T14:03:31.649Z,1.27
2017-11-20T14:06:00.194Z,1.40
2017-11-20T14:08:28.429Z,1.30
2017-11-20T14:10:56.740Z,1.30
2017-11-20T14:13:24.974Z,1.13
2017-11-20T14:15:53.221Z,1.27
2017-11-20T14:18:21.567Z,1.20
2017-11-20T14:20:49.940Z,1.10
2017-11-20T14:23:18.180Z,1.10
2017-11-20T14:25:47.258Z,1.07
2017-11-20T14:28:15.514Z,1.20
2017-11-20T14:30:43.732Z,1.10
2017-11-20T14:33:12.040Z,1.70
2017-11-20T14:35:40.530Z,1.17
2017-11-20T14:38:08.777Z,1.30
2017-11-20T14:40:37.042Z,1.47
2017-11-20T14:43:06.069Z,1.30
2017-11-20T14:45:34.296Z,1.20
2017-11-20T14:48:05.339Z,1.27
2017-11-20T14:50:33.872Z,1.10
2017-11-20T14:53:02.110Z,1.10
2017-11-20T14:55:30.401Z,1.20
2017-11-20T14:57:58.977Z,1.50
2017-11-20T15:00:27.205Z,1.20
2017-11-20T15:02:56.869Z,1.27
2017-11-20T15:05:25.156Z,1.30
2017-11-20T15:07:53.379Z,1.30
2017-11-20T15:10:21.701Z,1.13
2017-11-20T15:12:49.940Z,1.13
2017-11-20T15:15:18.236Z,1.17
2017-11-20T15:17:46.470Z,1.30
2017-11-20T15:20:15.031Z,1.30
2017-11-20T15:22:43.290Z,1.20
2017-11-20T15:25:11.552Z,1.20
2017-11-20T15:27:39.786Z,1.20
2017-11-20T15:30:08.444Z,1.30
2017-11-20T15:32:36.702Z,1.10
2017-11-20T15:35:05.195Z,0.90
2017-11-20T15:37:33.453Z,1.00
2017-11-20T15:40:02.267Z,1.17
2017-11-20T15:42:30.505Z,1.30
2017-11-20T15:44:58.749Z,1.23
2017-11-20T15:47:27.384Z,1.03
2017-11-20T15:49:55.643Z,1.00
2017-11-20T15:52:23.905Z,1.13
2017-11-20T15:54:53.109Z,1.33
2017-11-20T15:57:22.229Z,1.10
2017-11-20T15:59:50.481Z,1.07
2017-11-20T16:02:18.717Z,1.10
2017-11-20T16:04:47.368Z,1.10
2017-11-20T16:07:16.465Z,1.10
2017-11-20T16:09:44.699Z,1.10
2017-11-20T16:12:13.064Z,1.20
2017-11-20T16:14:41.312Z,1.10
2017-11-20T16:17:09.573Z,0.93
2017-11-20T16:19:37.870Z,1.20
2017-11-20T16:22:06.132Z,1.07
2017-11-20T16:24:34.425Z,1.17
2017-11-20T16:27:03.097Z,1.00
2017-11-20T16:29:31.330Z,1.10
2017-11-20T16:31:59.561Z,1.27
2017-11-20T16:34:28.200Z,0.93
2017-11-20T16:36:56.466Z,1.07
2017-11-20T16:39:24.770Z,1.20
2017-11-20T16:41:52.993Z,1.17
2017-11-20T16:44:21.251Z,1.20
2017-11-20T16:46:49.897Z,0.90
2017-11-20T16:49:18.146Z,1.10
2017-11-20T16:51:46.394Z,1.10
2017-11-20T16:54:15.060Z,1.10
2017-11-20T16:56:43.279Z,1.03
2017-11-20T16:59:11.538Z,1.10
2017-11-20T17:01:52.071Z,1.07
2017-11-20T17:04:20.309Z,1.10
2017-11-20T17:06:48.547Z,1.10
2017-11-20T17:09:16.833Z,1.00
2017-11-20T17:11:45.073Z,1.00
2017-11-20T17:14:13.319Z,1.20
2017-11-20T17:16:41.601Z,1.20
2017-11-20T17:19:09.846Z,1.23
2017-11-20T17:21:38.076Z,1.20
2017-11-20T17:24:06.355Z,1.20
2017-11-20T17:26:34.589Z,1.00
2017-11-20T17:29:02.826Z,1.30
2017-11-20T17:31:31.514Z,1.10
2017-11-20T17:33:59.749Z,1.40
2017-11-20T17:36:27.999Z,1.30
2017-11-20T17:38:56.261Z,1.20
2017-11-20T17:41:24.492Z,1.20
2017-11-20T17:43:52.722Z,1.10
2017-11-20T17:46:20.998Z,1.00
2017-11-20T17:48:49.303Z,1.60
2017-11-20T17:51:17.545Z,1.30
2017-11-20T17:53:45.774Z,1.60
2017-11-20T17:56:14.429Z,1.47
2017-11-20T17:58:42.700Z,1.50
2017-11-20T18:01:10.950Z,1.70
2017-11-20T18:03:39.194Z,1.80
2017-11-20T18:06:07.822Z,1.80
2017-11-20T18:08:36.075Z,1.87
2017-11-20T18:11:04.316Z,1.90
2017-11-20T18:13:32.568Z,1.90
2017-11-20T18:16:00.791Z,2.07
2017-11-20T18:18:29.122Z,1.83
2017-11-20T18:20:57.354Z,2.50
2017-11-20T18:23:25.727Z,2.13
2017-11-20T18:25:54.009Z,2.73
2017-11-20T18:28:22.545Z,2.40
2017-11-20T18:30:50.769Z,2.53
2017-11-20T18:33:19.086Z,2.30
2017-11-20T18:35:47.307Z,2.20
2017-11-20T18:38:15.935Z,2.30
2017-11-20T18:40:44.191Z,2.10
2017-11-20T18:43:12.444Z,2.33
2017-11-20T18:45:41.193Z,2.20
2017-11-20T18:48:09.440Z,2.60
2017-11-20T18:50:37.676Z,2.47
2017-11-20T18:53:06.004Z,2.50
2017-11-20T18:55:34.229Z,2.73
2017-11-20T18:58:02.467Z,2.50
2017-11-20T19:00:42.605Z,2.40
2017-11-20T19:03:22.533Z,2.60
2017-11-20T19:06:02.652Z,2.57
2017-11-20T19:11:33.730Z,2.80
2017-11-20T19:14:02.394Z,2.60
2017-11-20T19:16:31.038Z,2.77
2017-11-20T19:18:59.283Z,2.63
2017-11-20T19:21:27.778Z,2.93
2017-11-20T19:23:56.018Z,2.90
2017-11-20T19:26:24.656Z,2.80
2017-11-20T19:28:52.959Z,2.77
2017-11-20T19:31:21.642Z,2.50
2017-11-20T19:33:49.886Z,2.80
2017-11-20T19:36:18.387Z,2.50
2017-11-20T19:38:46.654Z,2.90
2017-11-20T19:41:14.876Z,2.73
2017-11-20T19:43:43.417Z,3.00
2017-11-20T19:46:11.653Z,3.07
2017-11-20T19:48:39.901Z,2.83
2017-11-20T19:51:08.582Z,3.10
2017-11-20T19:53:37.224Z,2.93
2017-11-20T19:56:05.473Z,2.93
2017-11-20T19:58:34.331Z,2.87
2017-11-20T20:01:02.578Z,2.50
2017-11-20T20:03:31.069Z,2.70
2017-11-20T20:05:59.318Z,2.83
2017-11-20T20:08:27.554Z,2.90
2017-11-20T20:10:55.815Z,2.80
2017-11-20T20:13:36.828Z,2.60
2017-11-20T20:16:16.910Z,2.83
2017-11-20T20:18:45.285Z,2.60
2017-11-20T20:21:13.506Z,2.47
2017-11-20T20:23:41.771Z,2.80
2017-11-20T20:26:10.005Z,3.00
2017-11-20T20:28:38.251Z,2.70
2017-11-20T20:31:06.520Z,2.67
2017-11-20T20:33:34.775Z,2.77
2017-11-20T20:36:03.420Z,2.63
2017-11-20T20:38:31.648Z,2.70
2017-11-20T20:41:00.046Z,2.50
2017-11-20T20:43:28.288Z,2.87
2017-11-20T20:45:57.163Z,2.83
2017-11-20T20:48:25.517Z,2.40
2017-11-20T20:50:53.760Z,2.47
2017-11-20T20:53:22.309Z,2.33
2017-11-20T20:55:50.563Z,2.40
2017-11-20T20:58:19.040Z,2.47
2017-11-20T21:00:47.294Z,2.30
2017-11-20T21:03:15.560Z,2.40
2017-11-20T21:05:43.806Z,2.40
2017-11-20T21:08:18.391Z,2.37
2017-11-20T21:10:52.475Z,2.37
2017-11-20T21:13:20.732Z,2.30
2017-11-20T21:15:48.974Z,2.70
2017-11-20T21:18:17.226Z,2.20
2017-11-20T21:20:45.500Z,2.30
2017-11-20T21:23:13.746Z,2.63
2017-11-20T21:25:41.996Z,2.80
2017-11-20T21:28:10.668Z,2.47
2017-11-20T21:30:39.934Z,2.57
2017-11-20T21:33:08.382Z,2.60
2017-11-20T21:35:36.902Z,2.80
2017-11-20T21:38:05.137Z,3.00
2017-11-20T21:40:33.421Z,2.73
2017-11-20T21:43:01.657Z,2.60
2017-11-20T21:45:30.284Z,2.77
2017-11-20T21:47:58.557Z,2.80
2017-11-20T21:50:26.800Z,3.00
2017-11-20T21:52:55.434Z,2.53
2017-11-20T21:55:23.688Z,2.73
2017-11-20T21:57:51.944Z,2.80
2017-11-20T22:00:20.191Z,2.43
2017-11-20T22:02:48.460Z,2.63
2017-11-20T22:05:16.709Z,2.60
2017-11-20T22:07:44.933Z,3.03
2017-11-20T22:10:13.621Z,3.00
2017-11-20T22:13:08.121Z,2.80
2017-11-20T22:15:36.433Z,3.20
2017-11-20T22:18:04.937Z,3.10
2017-11-20T22:20:33.170Z,3.23
2017-11-20T22:23:02.000Z,3.23
2017-11-20T22:25:30.258Z,3.10
2017-11-20T22:27:58.485Z,3.47
2017-11-20T22:30:27.119Z,3.40
2017-11-20T22:32:55.591Z,3.10
2017-11-20T22:35:23.937Z,3.20
2017-11-20T22:37:52.185Z,3.20
2017-11-20T22:40:20.458Z,3.30
2017-11-20T22:42:48.765Z,3.07
2017-11-20T22:45:17.002Z,2.83
2017-11-20T22:47:45.277Z,2.70
2017-11-20T22:50:13.518Z,2.70
2017-11-20T22:52:41.761Z,3.00
2017-11-20T22:55:10.517Z,2.73
2017-11-20T22:57:38.769Z,2.53
2017-11-20T23:00:07.002Z,2.30
2017-11-20T23:02:36.001Z,2.70
2017-11-20T23:05:04.350Z,2.40
2017-11-20T23:07:32.591Z,2.30
2017-11-20T23:10:01.196Z,2.90
2017-11-20T23:12:29.675Z,2.87
2017-11-20T23:14:57.917Z,2.77
2017-11-20T23:17:26.574Z,2.87
2017-11-20T23:19:55.587Z,3.10
2017-11-20T23:22:23.809Z,3.40
2017-11-20T23:24:52.089Z,3.17
2017-11-20T23:27:20.343Z,2.60
2017-11-20T23:29:48.564Z,3.00
2017-11-20T23:32:17.520Z,3.00
2017-11-20T23:34:45.741Z,2.83
2017-11-20T23:37:13.981Z,2.77
2017-11-20T23:39:42.257Z,2.70
2017-11-20T23:42:10.486Z,2.60
2017-11-20T23:44:38.718Z,2.77
2017-11-20T23:47:07.394Z,2.57
2017-11-20T23:49:35.633Z,2.80
2017-11-20T23:52:03.858Z,2.80
2017-11-20T23:54:37.480Z,2.97
2017-11-20T23:57:05.730Z,2.73
2017-11-20T23:59:34.356Z,2.67
